createdAt,value
2022-12-31T00:02:25.583Z,84.80
2022-12-31T00:04:57.561Z,84.80
2022-12-31T00:07:28.223Z,84.70
2022-12-31T00:09:58.945Z,84.50
2022-12-31T00:12:34.105Z,84.70
2022-12-31T00:15:04.966Z,84.70
2022-12-31T00:17:35.649Z,85.50
2022-12-31T00:20:06.784Z,84.60
2022-12-31T00:22:37.657Z,85.00
2022-12-31T00:25:09.358Z,85.00
2022-12-31T00:27:40.057Z,84.70
2022-12-31T00:30:12.110Z,84.20
2022-12-31T00:32:42.933Z,83.60
2022-12-31T00:35:13.776Z,83.20
2022-12-31T00:37:44.444Z,83.10
2022-12-31T00:40:15.660Z,82.90
2022-12-31T00:42:46.355Z,83.00
2022-12-31T00:45:17.089Z,83.10
2022-12-31T00:47:47.767Z,82.60
2022-12-31T00:50:18.488Z,82.30
2022-12-31T00:52:49.221Z,82.20
2022-12-31T00:55:20.884Z,81.80
2022-12-31T00:57:51.527Z,81.60
2022-12-31T01:00:22.503Z,81.60
2022-12-31T01:02:53.258Z,81.60
2022-12-31T01:05:24.025Z,81.50
2022-12-31T01:07:55.976Z,81.50
2022-12-31T01:10:45.419Z,81.40
2022-12-31T01:13:16.588Z,81.50
2022-12-31T01:15:47.343Z,81.30
2022-12-31T01:18:18.038Z,81.00
2022-12-31T01:20:48.702Z,80.40
2022-12-31T01:23:19.353Z,79.90
2022-12-31T01:25:50.084Z,79.50
2022-12-31T01:28:20.803Z,79.30
2022-12-31T01:30:51.515Z,79.60
2022-12-31T01:33:22.437Z,79.40
2022-12-31T01:35:53.245Z,79.50
2022-12-31T01:38:23.963Z,79.50
2022-12-31T01:40:54.639Z,79.30
2022-12-31T01:43:25.403Z,78.80
2022-12-31T01:45:57.758Z,78.80
2022-12-31T01:48:29.573Z,79.00
2022-12-31T01:51:00.381Z,79.00
2022-12-31T01:53:31.917Z,78.80
2022-12-31T01:56:04.188Z,78.50
2022-12-31T01:58:41.079Z,78.30
2022-12-31T02:01:14.345Z,78.70
2022-12-31T02:03:45.626Z,78.90
2022-12-31T02:06:25.035Z,78.50
2022-12-31T02:08:55.827Z,78.40
2022-12-31T02:11:31.913Z,78.40
2022-12-31T02:14:05.133Z,78.60
2022-12-31T02:16:44.709Z,77.10
2022-12-31T02:19:51.242Z,77.20
2022-12-31T02:22:27.585Z,77.30
2022-12-31T02:25:03.735Z,77.80
2022-12-31T02:27:45.884Z,76.60
2022-12-31T02:30:19.074Z,76.40
2022-12-31T02:33:04.048Z,76.60
2022-12-31T02:35:45.977Z,76.40
2022-12-31T02:38:27.995Z,76.30
2022-12-31T02:40:59.299Z,75.80
2022-12-31T02:43:30.824Z,75.60
2022-12-31T02:46:19.443Z,75.60
2022-12-31T02:49:01.690Z,76.50
2022-12-31T02:51:43.535Z,75.30
2022-12-31T02:54:22.508Z,76.50
2022-12-31T02:57:04.480Z,75.50
2022-12-31T02:59:57.883Z,75.80
2022-12-31T03:02:31.523Z,75.40
2022-12-31T03:05:04.588Z,76.00
2022-12-31T03:07:35.919Z,74.80
2022-12-31T03:10:07.119Z,74.90
2022-12-31T03:12:50.624Z,74.80
2022-12-31T03:15:29.877Z,74.60
2022-12-31T03:18:06.655Z,73.90
2022-12-31T03:21:06.455Z,74.10
2022-12-31T03:23:46.886Z,73.70
2022-12-31T03:26:17.657Z,73.30
2022-12-31T03:28:48.791Z,73.20
2022-12-31T03:31:19.461Z,72.60
2022-12-31T03:33:50.172Z,72.90
2022-12-31T03:36:20.820Z,72.00
2022-12-31T03:38:52.961Z,71.30
2022-12-31T03:41:23.681Z,71.20
2022-12-31T03:43:54.449Z,71.00
2022-12-31T03:46:25.087Z,71.90
2022-12-31T03:48:57.334Z,70.70
2022-12-31T03:51:27.993Z,70.70
2022-12-31T03:53:58.759Z,70.60
2022-12-31T03:56:29.500Z,70.30
2022-12-31T03:59:00.293Z,70.40
2022-12-31T04:01:31.081Z,69.70
2022-12-31T04:04:01.812Z,69.70
2022-12-31T04:06:32.458Z,69.30
2022-12-31T04:09:03.123Z,68.70
2022-12-31T04:11:33.763Z,68.80
2022-12-31T04:14:04.453Z,68.50
2022-12-31T04:16:35.240Z,68.30
2022-12-31T04:19:06.375Z,67.90
2022-12-31T04:21:37.043Z,67.90
2022-12-31T04:24:08.619Z,67.20
2022-12-31T04:26:40.775Z,66.90
2022-12-31T04:29:11.732Z,67.30
2022-12-31T04:31:42.395Z,66.20
2022-12-31T04:34:13.061Z,65.90
2022-12-31T04:36:43.691Z,65.80
2022-12-31T04:41:47.304Z,64.10
2022-12-31T04:44:32.291Z,64.50
2022-12-31T04:47:06.014Z,64.90
2022-12-31T04:49:40.448Z,65.10
2022-12-31T04:52:30.925Z,63.80
2022-12-31T04:54:57.103Z,63.50
2022-12-31T04:57:28.571Z,62.70
2022-12-31T04:59:59.230Z,62.60
2022-12-31T05:02:31.312Z,63.00
2022-12-31T05:05:02.332Z,63.30
2022-12-31T05:07:32.977Z,63.40
2022-12-31T05:10:03.740Z,62.60
2022-12-31T05:12:34.408Z,61.90
2022-12-31T05:15:05.175Z,61.50
2022-12-31T05:17:35.834Z,61.80
2022-12-31T05:20:06.928Z,61.10
2022-12-31T05:22:37.580Z,60.70
2022-12-31T05:25:08.958Z,61.30
2022-12-31T05:27:39.665Z,60.80
2022-12-31T05:30:11.799Z,60.50
2022-12-31T05:32:44.913Z,60.90
2022-12-31T05:35:15.859Z,60.70
2022-12-31T05:37:46.826Z,60.60
2022-12-31T05:40:17.700Z,60.50
2022-12-31T05:42:48.351Z,60.70
2022-12-31T05:45:21.044Z,60.30
2022-12-31T05:47:54.331Z,60.00
2022-12-31T05:50:25.067Z,60.00
2022-12-31T05:52:55.742Z,60.30
2022-12-31T05:55:26.583Z,60.20
2022-12-31T05:57:58.513Z,59.90
2022-12-31T06:00:31.813Z,59.30
2022-12-31T06:03:02.671Z,58.90
2022-12-31T06:05:33.469Z,59.30
2022-12-31T06:08:04.121Z,59.20
2022-12-31T06:10:37.818Z,59.30
2022-12-31T06:13:08.842Z,58.60
2022-12-31T06:15:42.676Z,58.40
2022-12-31T06:18:13.401Z,58.50
2022-12-31T06:20:44.135Z,58.90
2022-12-31T06:23:14.786Z,58.40
2022-12-31T06:25:45.438Z,58.60
2022-12-31T06:28:20.159Z,58.90
2022-12-31T06:30:48.342Z,59.00
2022-12-31T06:33:19.140Z,58.40
2022-12-31T06:35:49.796Z,58.00
2022-12-31T06:38:20.493Z,57.70
2022-12-31T06:40:51.258Z,57.90
2022-12-31T06:43:22.548Z,58.10
2022-12-31T06:45:53.401Z,58.00
2022-12-31T06:48:24.066Z,57.80
2022-12-31T06:50:54.876Z,57.70
2022-12-31T06:53:25.719Z,58.20
2022-12-31T06:55:56.960Z,57.70
2022-12-31T06:58:28.053Z,58.10
2022-12-31T07:01:04.159Z,57.90
2022-12-31T07:03:43.979Z,57.60
2022-12-31T07:06:23.454Z,57.70
2022-12-31T07:09:08.835Z,58.20
2022-12-31T07:11:57.588Z,57.70
2022-12-31T07:14:39.959Z,57.80
2022-12-31T07:17:21.981Z,57.40
2022-12-31T07:19:58.056Z,57.10
2022-12-31T07:22:33.747Z,57.70
2022-12-31T07:25:05.362Z,57.80
2022-12-31T07:28:02.585Z,56.80
2022-12-31T07:31:03.323Z,57.20
2022-12-31T07:34:04.012Z,57.00
2022-12-31T07:36:52.149Z,57.30
2022-12-31T07:39:32.430Z,57.70
2022-12-31T07:42:30.164Z,57.50
2022-12-31T07:45:15.181Z,57.10
2022-12-31T07:47:46.387Z,57.30
2022-12-31T07:50:19.919Z,56.90
2022-12-31T07:52:51.514Z,57.20
2022-12-31T07:55:22.319Z,56.80
2022-12-31T07:58:04.598Z,57.20
2022-12-31T08:00:35.807Z,57.30
2022-12-31T08:03:21.316Z,57.30
2022-12-31T08:05:54.830Z,56.80
2022-12-31T08:08:47.836Z,56.80
2022-12-31T08:11:29.733Z,56.80
2022-12-31T08:14:04.272Z,56.90
2022-12-31T08:16:35.585Z,57.20
2022-12-31T08:19:06.868Z,57.00
2022-12-31T08:22:01.416Z,57.00
2022-12-31T08:24:56.649Z,57.20
2022-12-31T08:27:35.779Z,56.70
2022-12-31T08:30:14.631Z,57.40
2022-12-31T08:32:59.998Z,57.30
2022-12-31T08:35:41.387Z,56.90
2022-12-31T08:38:36.521Z,57.20
2022-12-31T08:41:21.745Z,57.20
2022-12-31T08:44:06.851Z,57.10
2022-12-31T08:46:54.997Z,57.30
2022-12-31T08:49:28.401Z,57.40
2022-12-31T08:51:59.974Z,57.20
2022-12-31T08:54:31.918Z,56.60
2022-12-31T08:57:34.865Z,56.90
2022-12-31T09:00:13.889Z,56.90
2022-12-31T09:03:06.650Z,57.20
2022-12-31T09:06:07.001Z,57.40
2022-12-31T09:08:44.142Z,57.70
2022-12-31T09:11:23.716Z,57.20
2022-12-31T09:14:02.785Z,58.10
2022-12-31T09:16:42.187Z,57.40
2022-12-31T09:19:14.227Z,57.40
2022-12-31T09:21:48.484Z,57.40
2022-12-31T09:24:19.912Z,57.50
2022-12-31T09:27:06.556Z,57.10
2022-12-31T09:29:49.163Z,56.90
2022-12-31T09:32:35.432Z,57.30
2022-12-31T09:35:25.445Z,57.50
2022-12-31T09:38:11.287Z,57.50
2022-12-31T09:41:09.154Z,57.70
2022-12-31T09:44:12.928Z,57.60
2022-12-31T09:47:26.140Z,57.90
2022-12-31T09:50:19.566Z,57.80
2022-12-31T09:52:55.798Z,57.90
2022-12-31T09:55:39.962Z,58.00
2022-12-31T09:58:44.244Z,58.20
2022-12-31T10:01:29.542Z,58.40
2022-12-31T10:04:10.840Z,58.70
2022-12-31T10:06:55.572Z,58.90
2022-12-31T10:09:57.462Z,59.00
2022-12-31T10:13:00.299Z,59.00
2022-12-31T10:15:33.586Z,59.40
2022-12-31T10:18:21.690Z,59.60
2022-12-31T10:21:22.031Z,59.80
2022-12-31T10:24:19.597Z,60.10
2022-12-31T10:27:17.624Z,60.50
2022-12-31T10:30:07.888Z,60.50
2022-12-31T10:33:03.330Z,60.80
2022-12-31T10:35:53.179Z,61.10
2022-12-31T10:38:56.737Z,61.20
2022-12-31T10:41:46.359Z,61.50
2022-12-31T10:44:36.191Z,61.60
2022-12-31T10:47:15.409Z,61.90
2022-12-31T10:50:04.960Z,62.00
2022-12-31T10:53:05.664Z,62.10
2022-12-31T10:55:47.633Z,62.30
2022-12-31T10:58:38.686Z,63.60
2022-12-31T11:01:20.894Z,62.70
2022-12-31T11:04:22.935Z,62.90
2022-12-31T11:07:20.463Z,63.10
2022-12-31T11:10:26.969Z,63.30
2022-12-31T11:13:08.898Z,63.40
2022-12-31T11:15:46.750Z,63.70
2022-12-31T11:18:19.420Z,63.70
2022-12-31T11:21:12.254Z,63.90
2022-12-31T11:23:54.465Z,64.00
2022-12-31T11:26:50.460Z,64.10
2022-12-31T11:29:46.523Z,64.30
2022-12-31T11:32:42.298Z,64.40
2022-12-31T11:35:27.235Z,64.60
2022-12-31T11:38:00.415Z,64.70
2022-12-31T11:40:53.204Z,64.70
2022-12-31T11:43:36.594Z,64.80
2022-12-31T11:46:21.589Z,65.00
2022-12-31T11:49:17.442Z,65.10
2022-12-31T11:52:02.715Z,65.40
2022-12-31T11:54:52.343Z,65.60
2022-12-31T11:57:28.509Z,65.70
2022-12-31T12:00:02.000Z,65.90
2022-12-31T12:02:41.185Z,65.90
2022-12-31T12:05:13.411Z,66.00
2022-12-31T12:07:44.136Z,66.00
2022-12-31T12:10:35.739Z,66.90
2022-12-31T12:13:02.370Z,66.20
2022-12-31T12:15:37.450Z,66.30
2022-12-31T12:18:10.670Z,66.20
2022-12-31T12:20:43.075Z,66.50
2022-12-31T12:23:26.642Z,66.40
2022-12-31T12:25:57.352Z,66.50
2022-12-31T12:28:30.553Z,67.50
2022-12-31T12:31:06.793Z,66.70
2022-12-31T12:33:48.567Z,66.80
2022-12-31T12:36:21.731Z,66.90
2022-12-31T12:38:54.933Z,67.00
2022-12-31T12:41:40.591Z,67.20
2022-12-31T12:44:13.631Z,67.20
2022-12-31T12:46:52.121Z,67.30
2022-12-31T12:49:40.699Z,67.40
2022-12-31T12:52:47.463Z,67.60
2022-12-31T12:55:47.863Z,68.00
2022-12-31T12:58:35.962Z,68.20
2022-12-31T13:01:15.184Z,68.40
2022-12-31T13:04:34.112Z,68.60
2022-12-31T13:06:46.699Z,68.60
2022-12-31T13:09:38.306Z,68.70
2022-12-31T13:12:17.536Z,68.90
2022-12-31T13:15:12.974Z,69.10
2022-12-31T13:17:49.784Z,69.30
2022-12-31T13:20:35.889Z,69.70
2022-12-31T13:23:25.306Z,70.20
2022-12-31T13:26:07.360Z,69.80
2022-12-31T13:28:41.557Z,70.50
2022-12-31T13:31:17.559Z,70.60
2022-12-31T13:33:50.787Z,70.50
2022-12-31T13:36:23.795Z,70.80
2022-12-31T13:39:00.020Z,70.90
2022-12-31T13:41:48.363Z,70.90
2022-12-31T13:44:36.830Z,70.90
2022-12-31T13:47:15.865Z,70.90
2022-12-31T13:50:14.441Z,71.00
2022-12-31T13:52:45.133Z,71.00
2022-12-31T13:55:24.708Z,71.10
2022-12-31T13:58:09.988Z,71.30
2022-12-31T14:00:49.070Z,71.50
2022-12-31T14:03:44.679Z,71.80
2022-12-31T14:06:20.401Z,71.70
2022-12-31T14:09:06.769Z,71.80
2022-12-31T14:12:10.851Z,72.20
2022-12-31T14:14:50.167Z,72.00
2022-12-31T14:17:23.358Z,72.30
2022-12-31T14:20:05.514Z,72.50
2022-12-31T14:22:47.924Z,72.40
2022-12-31T14:25:23.924Z,72.60
2022-12-31T14:27:56.965Z,72.50
2022-12-31T14:30:31.525Z,72.60
2022-12-31T14:33:27.734Z,73.00
2022-12-31T14:36:22.201Z,73.10
2022-12-31T14:38:55.473Z,73.20
2022-12-31T14:41:46.689Z,73.40
2022-12-31T14:44:22.502Z,73.40
2022-12-31T14:47:12.152Z,73.30
2022-12-31T14:49:57.369Z,73.70
2022-12-31T14:52:38.192Z,74.00
2022-12-31T14:55:17.564Z,73.90
2022-12-31T15:00:36.547Z,74.30
2022-12-31T15:03:21.889Z,74.80
2022-12-31T15:06:20.705Z,74.40
2022-12-31T15:09:08.454Z,74.20
2022-12-31T15:11:44.388Z,74.10
2022-12-31T15:14:53.538Z,74.10
2022-12-31T15:17:56.136Z,74.00
2022-12-31T15:20:47.744Z,73.90
2022-12-31T15:23:20.941Z,73.80
2022-12-31T15:25:53.838Z,73.70
2022-12-31T15:28:43.222Z,73.90
2022-12-31T15:31:20.316Z,74.10
2022-12-31T15:33:56.643Z,73.90
2022-12-31T15:36:33.746Z,73.90
2022-12-31T15:39:09.293Z,74.00
2022-12-31T15:42:03.064Z,74.00
2022-12-31T15:44:23.280Z,74.00
2022-12-31T15:47:05.404Z,74.00
2022-12-31T15:49:38.575Z,74.10
2022-12-31T15:52:19.233Z,74.10
2022-12-31T15:54:55.623Z,74.10
2022-12-31T15:57:43.807Z,74.20
2022-12-31T16:00:25.653Z,74.20
2022-12-31T16:02:57.891Z,74.20
2022-12-31T16:05:29.854Z,74.20
2022-12-31T16:08:01.712Z,74.20
2022-12-31T16:10:33.910Z,74.30
2022-12-31T16:13:05.982Z,74.30
2022-12-31T16:15:37.519Z,74.30
2022-12-31T16:18:20.817Z,75.30
2022-12-31T16:20:51.406Z,74.30
2022-12-31T16:23:29.334Z,75.40
2022-12-31T16:26:02.472Z,74.30
2022-12-31T16:28:35.465Z,74.40
2022-12-31T16:31:25.224Z,74.40
2022-12-31T16:33:57.314Z,74.50
2022-12-31T16:36:27.960Z,74.60
2022-12-31T16:39:02.631Z,74.50
2022-12-31T16:41:36.014Z,74.50
2022-12-31T16:44:06.751Z,74.60
2022-12-31T16:46:39.009Z,74.60
2022-12-31T16:49:12.275Z,74.70
2022-12-31T16:51:45.699Z,74.80
2022-12-31T16:54:21.900Z,74.80
2022-12-31T16:56:56.109Z,75.10
2022-12-31T16:59:33.481Z,75.20
2022-12-31T17:02:04.059Z,75.30
2022-12-31T17:04:34.817Z,75.30
2022-12-31T17:07:35.085Z,75.30
2022-12-31T17:10:16.925Z,75.40
2022-12-31T17:15:24.704Z,75.70
2022-12-31T17:18:00.828Z,75.80
2022-12-31T17:20:34.103Z,75.80
2022-12-31T17:23:07.744Z,76.60
2022-12-31T17:25:40.195Z,75.90
2022-12-31T17:28:25.012Z,76.10
2022-12-31T17:30:55.969Z,76.20
2022-12-31T17:33:31.577Z,76.30
2022-12-31T17:36:19.300Z,76.60
2022-12-31T17:38:52.563Z,76.30
2022-12-31T17:41:30.991Z,76.60
2022-12-31T17:44:02.339Z,76.70
2022-12-31T17:46:35.918Z,76.70
2022-12-31T17:49:07.728Z,76.90
2022-12-31T17:51:43.951Z,77.00
2022-12-31T17:54:21.426Z,77.10
2022-12-31T17:56:52.407Z,77.30
2022-12-31T17:59:25.291Z,77.40
2022-12-31T18:01:56.001Z,77.60
2022-12-31T18:04:28.046Z,77.50
2022-12-31T18:06:59.429Z,77.90
2022-12-31T18:09:30.068Z,77.90
2022-12-31T18:12:03.284Z,77.70
2022-12-31T18:14:34.011Z,78.20
2022-12-31T18:17:04.647Z,78.40
2022-12-31T18:20:03.690Z,78.70
2022-12-31T18:22:08.789Z,78.60
2022-12-31T18:24:40.145Z,78.60
2022-12-31T18:27:19.009Z,79.10
2022-12-31T18:29:49.769Z,79.10
2022-12-31T18:32:29.451Z,78.80
2022-12-31T18:35:00.535Z,78.80
2022-12-31T18:37:31.754Z,79.00
2022-12-31T18:40:02.448Z,78.90
2022-12-31T18:42:35.485Z,79.30
2022-12-31T18:45:06.599Z,79.30
2022-12-31T18:47:37.902Z,79.70
2022-12-31T18:50:10.485Z,79.80
2022-12-31T18:52:43.455Z,79.70
2022-12-31T18:55:29.140Z,80.20
2022-12-31T18:58:00.033Z,79.90
2022-12-31T19:00:31.497Z,80.20
2022-12-31T19:03:04.367Z,80.10
2022-12-31T19:05:39.403Z,80.40
2022-12-31T19:08:10.075Z,79.90
2022-12-31T19:10:40.838Z,80.60
2022-12-31T19:13:14.070Z,80.20
2022-12-31T19:15:54.656Z,80.70
2022-12-31T19:18:25.323Z,80.70
2022-12-31T19:20:56.070Z,80.60
2022-12-31T19:23:26.790Z,80.60
2022-12-31T19:25:57.455Z,80.90
2022-12-31T19:28:29.830Z,80.70
2022-12-31T19:31:00.525Z,81.00
2022-12-31T19:33:31.165Z,80.90
2022-12-31T19:36:01.926Z,80.90
2022-12-31T19:38:35.851Z,81.00
2022-12-31T19:41:06.640Z,81.20
2022-12-31T19:43:37.287Z,81.10
2022-12-31T19:46:10.040Z,81.00
2022-12-31T19:48:40.244Z,81.20
2022-12-31T19:51:16.247Z,81.00
2022-12-31T19:53:47.418Z,80.70
2022-12-31T19:56:20.570Z,80.90
2022-12-31T19:58:51.229Z,81.20
2022-12-31T20:01:24.453Z,81.20
2022-12-31T20:03:55.331Z,81.20
2022-12-31T20:06:26.113Z,81.30
2022-12-31T20:08:56.893Z,81.50
2022-12-31T20:11:28.201Z,81.50
2022-12-31T20:13:58.865Z,81.30
2022-12-31T20:16:33.322Z,81.40
2022-12-31T20:19:04.056Z,81.40
2022-12-31T20:21:35.398Z,80.70
2022-12-31T20:24:07.141Z,81.20
2022-12-31T20:26:37.782Z,81.40
2022-12-31T20:29:08.415Z,81.30
2022-12-31T20:31:40.577Z,81.10
2022-12-31T20:34:12.746Z,81.10
2022-12-31T20:36:43.873Z,81.40
2022-12-31T20:39:15.135Z,81.40
2022-12-31T20:41:45.781Z,81.30
2022-12-31T20:44:16.770Z,81.80
2022-12-31T20:46:47.503Z,81.80
2022-12-31T20:49:26.973Z,81.80
2022-12-31T20:51:52.224Z,81.80
2022-12-31T20:54:22.244Z,81.60
2022-12-31T20:56:53.031Z,82.20
2022-12-31T20:59:23.681Z,81.50
2022-12-31T21:02:20.476Z,81.60
2022-12-31T21:04:26.614Z,81.60
2022-12-31T21:06:57.451Z,81.70
2022-12-31T21:09:28.091Z,81.80
2022-12-31T21:12:15.933Z,81.50
2022-12-31T21:14:46.605Z,81.40
2022-12-31T21:17:17.256Z,81.60
2022-12-31T21:19:48.060Z,81.60
2022-12-31T21:22:18.723Z,81.90
2022-12-31T21:24:49.387Z,81.90
2022-12-31T21:27:20.089Z,82.00
2022-12-31T21:30:17.564Z,82.20
2022-12-31T21:32:22.824Z,82.30
2022-12-31T21:35:31.093Z,82.40
2022-12-31T21:37:26.306Z,82.40
2022-12-31T21:39:58.724Z,82.50
2022-12-31T21:42:29.406Z,82.60
2022-12-31T21:45:01.179Z,82.90
2022-12-31T21:47:49.149Z,83.10
2022-12-31T21:50:20.145Z,82.90
2022-12-31T21:52:50.800Z,83.10
2022-12-31T21:55:39.020Z,82.90
2022-12-31T21:58:27.074Z,82.70
2022-12-31T22:00:59.485Z,82.90
2022-12-31T22:03:30.630Z,82.50
2022-12-31T22:06:03.955Z,84.20
2022-12-31T22:08:34.967Z,83.70
2022-12-31T22:11:05.609Z,83.80
2022-12-31T22:13:36.673Z,83.70
2022-12-31T22:16:08.402Z,84.00
2022-12-31T22:18:40.790Z,83.70
2022-12-31T22:21:19.472Z,84.70
2022-12-31T22:23:50.654Z,83.90
2022-12-31T22:26:44.768Z,83.80
2022-12-31T22:29:12.681Z,83.80
2022-12-31T22:31:43.362Z,83.80
2022-12-31T22:34:14.101Z,84.30
2022-12-31T22:36:44.740Z,84.20
2022-12-31T22:39:43.764Z,84.10
2022-12-31T22:41:51.221Z,84.80
2022-12-31T22:44:21.899Z,84.30
2022-12-31T22:46:52.704Z,84.00
2022-12-31T22:49:23.436Z,83.60
2022-12-31T22:51:57.504Z,84.80
2022-12-31T22:54:26.099Z,83.70
2022-12-31T22:56:56.742Z,84.10
2022-12-31T22:59:27.462Z,84.00
2022-12-31T23:01:58.155Z,84.10
2022-12-31T23:04:28.882Z,83.90
2022-12-31T23:06:59.661Z,84.20
2022-12-31T23:09:48.040Z,84.60
2022-12-31T23:12:18.708Z,84.70
2022-12-31T23:15:06.999Z,85.40
2022-12-31T23:17:55.231Z,85.20
2022-12-31T23:20:44.840Z,85.60
2022-12-31T23:23:18.382Z,85.20
2022-12-31T23:25:51.069Z,85.20
2022-12-31T23:28:24.633Z,85.00
2022-12-31T23:30:55.404Z,85.00
2022-12-31T23:33:28.216Z,85.20
2022-12-31T23:36:09.439Z,85.30
2022-12-31T23:38:40.086Z,85.40
2022-12-31T23:41:18.657Z,85.10
2022-12-31T23:43:49.903Z,85.30
2022-12-31T23:46:20.583Z,85.50
2022-12-31T23:48:51.230Z,85.50
2022-12-31T23:51:22.021Z,85.30
2022-12-31T23:53:52.693Z,85.30
2022-12-31T23:56:24.320Z,85.50
2022-12-31T23:58:59.360Z,85.50
